sensor_id;sensor_type;location;lat;lon;timestamp;P1;durP1;ratioP1;P2;durP2;ratioP2
50683;SDS011;36654;45.042;38.994;2022-08-20T00:01:40;13.45;;;6.00;;
50683;SDS011;36654;45.042;38.994;2022-08-20T00:04:06;10.73;;;5.72;;
50683;SDS011;36654;45.042;38.994;2022-08-20T00:06:32;11.05;;;6.22;;
50683;SDS011;36654;45.042;38.994;2022-08-20T00:08:58;10.77;;;6.20;;
50683;SDS011;36654;45.042;38.994;2022-08-20T00:11:24;11.05;;;5.93;;
50683;SDS011;36654;45.042;38.994;2022-08-20T00:13:52;11.20;;;6.00;;
50683;SDS011;36654;45.042;38.994;2022-08-20T00:16:21;12.63;;;5.57;;
50683;SDS011;36654;45.042;38.994;2022-08-20T00:18:48;12.88;;;6.05;;
50683;SDS011;36654;45.042;38.994;2022-08-20T00:21:15;12.05;;;6.10;;
50683;SDS011;36654;45.042;38.994;2022-08-20T00:23:44;12.82;;;6.10;;
50683;SDS011;36654;45.042;38.994;2022-08-20T00:26:12;10.95;;;6.00;;
50683;SDS011;36654;45.042;38.994;2022-08-20T00:28:38;12.32;;;6.10;;
50683;SDS011;36654;45.042;38.994;2022-08-20T00:31:05;9.95;;;5.57;;
50683;SDS011;36654;45.042;38.994;2022-08-20T00:33:33;13.32;;;6.00;;
50683;SDS011;36654;45.042;38.994;2022-08-20T00:36:00;10.00;;;6.05;;
50683;SDS011;36654;45.042;38.994;2022-08-20T00:38:34;10.65;;;5.47;;
50683;SDS011;36654;45.042;38.994;2022-08-20T00:41:01;13.35;;;6.60;;
50683;SDS011;36654;45.042;38.994;2022-08-20T00:46:14;16.75;;;6.50;;
50683;SDS011;36654;45.042;38.994;2022-08-20T00:48:44;12.93;;;6.10;;
50683;SDS011;36654;45.042;38.994;2022-08-20T00:54:16;13.95;;;6.10;;
50683;SDS011;36654;45.042;38.994;2022-08-20T00:56:44;10.73;;;5.60;;
50683;SDS011;36654;45.042;38.994;2022-08-20T00:59:13;11.77;;;5.20;;
50683;SDS011;36654;45.042;38.994;2022-08-20T01:01:42;13.70;;;6.50;;
50683;SDS011;36654;45.042;38.994;2022-08-20T01:04:09;10.75;;;5.88;;
50683;SDS011;36654;45.042;38.994;2022-08-20T01:06:36;11.15;;;5.95;;
50683;SDS011;36654;45.042;38.994;2022-08-20T01:11:32;10.75;;;5.30;;
50683;SDS011;36654;45.042;38.994;2022-08-20T01:14:01;10.48;;;5.32;;
50683;SDS011;36654;45.042;38.994;2022-08-20T01:16:45;11.82;;;5.70;;
50683;SDS011;36654;45.042;38.994;2022-08-20T01:19:13;10.25;;;5.35;;
50683;SDS011;36654;45.042;38.994;2022-08-20T01:21:45;10.95;;;5.90;;
50683;SDS011;36654;45.042;38.994;2022-08-20T01:24:24;11.48;;;5.97;;
50683;SDS011;36654;45.042;38.994;2022-08-20T01:26:56;10.13;;;5.30;;
50683;SDS011;36654;45.042;38.994;2022-08-20T01:29:28;10.10;;;5.75;;
50683;SDS011;36654;45.042;38.994;2022-08-20T01:31:59;10.20;;;5.80;;
50683;SDS011;36654;45.042;38.994;2022-08-20T01:34:26;16.15;;;6.35;;
50683;SDS011;36654;45.042;38.994;2022-08-20T01:36:53;12.73;;;5.65;;
50683;SDS011;36654;45.042;38.994;2022-08-20T01:39:26;13.13;;;5.82;;
50683;SDS011;36654;45.042;38.994;2022-08-20T01:44:38;12.68;;;5.75;;
50683;SDS011;36654;45.042;38.994;2022-08-20T01:47:20;11.80;;;5.65;;
50683;SDS011;36654;45.042;38.994;2022-08-20T01:49:53;10.02;;;5.35;;
50683;SDS011;36654;45.042;38.994;2022-08-20T01:52:33;11.15;;;5.47;;
50683;SDS011;36654;45.042;38.994;2022-08-20T01:55:07;12.70;;;5.72;;
50683;SDS011;36654;45.042;38.994;2022-08-20T01:57:34;12.60;;;5.55;;
50683;SDS011;36654;45.042;38.994;2022-08-20T02:00:04;13.15;;;5.72;;
50683;SDS011;36654;45.042;38.994;2022-08-20T02:02:32;12.23;;;5.68;;
50683;SDS011;36654;45.042;38.994;2022-08-20T02:04:58;11.80;;;6.05;;
50683;SDS011;36654;45.042;38.994;2022-08-20T02:07:24;10.07;;;6.90;;
50683;SDS011;36654;45.042;38.994;2022-08-20T02:09:50;9.63;;;5.72;;
50683;SDS011;36654;45.042;38.994;2022-08-20T02:12:17;11.55;;;5.68;;
50683;SDS011;36654;45.042;38.994;2022-08-20T02:14:44;9.55;;;5.32;;
50683;SDS011;36654;45.042;38.994;2022-08-20T02:17:13;9.70;;;5.53;;
50683;SDS011;36654;45.042;38.994;2022-08-20T02:19:41;12.02;;;6.20;;
50683;SDS011;36654;45.042;38.994;2022-08-20T02:22:19;13.27;;;6.10;;
50683;SDS011;36654;45.042;38.994;2022-08-20T02:24:48;12.65;;;6.28;;
50683;SDS011;36654;45.042;38.994;2022-08-20T02:27:15;12.55;;;6.47;;
50683;SDS011;36654;45.042;38.994;2022-08-20T02:29:42;16.92;;;7.53;;
50683;SDS011;36654;45.042;38.994;2022-08-20T02:32:08;10.70;;;6.40;;
50683;SDS011;36654;45.042;38.994;2022-08-20T02:34:34;12.88;;;7.10;;
50683;SDS011;36654;45.042;38.994;2022-08-20T02:37:01;16.67;;;8.55;;
50683;SDS011;36654;45.042;38.994;2022-08-20T02:39:27;14.88;;;8.48;;
50683;SDS011;36654;45.042;38.994;2022-08-20T02:41:53;15.25;;;8.00;;
50683;SDS011;36654;45.042;38.994;2022-08-20T02:44:19;14.32;;;8.63;;
50683;SDS011;36654;45.042;38.994;2022-08-20T02:46:45;17.65;;;9.50;;
50683;SDS011;36654;45.042;38.994;2022-08-20T02:49:13;21.42;;;9.73;;
50683;SDS011;36654;45.042;38.994;2022-08-20T02:51:38;13.82;;;9.48;;
50683;SDS011;36654;45.042;38.994;2022-08-20T02:54:04;16.13;;;9.93;;
50683;SDS011;36654;45.042;38.994;2022-08-20T02:56:30;20.25;;;9.18;;
50683;SDS011;36654;45.042;38.994;2022-08-20T02:58:55;16.08;;;9.70;;
50683;SDS011;36654;45.042;38.994;2022-08-20T03:01:21;15.32;;;9.23;;
50683;SDS011;36654;45.042;38.994;2022-08-20T03:03:47;18.63;;;9.45;;
50683;SDS011;36654;45.042;38.994;2022-08-20T03:06:13;15.45;;;9.15;;
50683;SDS011;36654;45.042;38.994;2022-08-20T03:08:40;20.77;;;10.05;;
50683;SDS011;36654;45.042;38.994;2022-08-20T03:11:06;17.52;;;9.57;;
50683;SDS011;36654;45.042;38.994;2022-08-20T03:13:32;15.02;;;9.40;;
50683;SDS011;36654;45.042;38.994;2022-08-20T03:15:59;20.83;;;9.98;;
50683;SDS011;36654;45.042;38.994;2022-08-20T03:18:28;14.52;;;9.02;;
50683;SDS011;36654;45.042;38.994;2022-08-20T03:20:57;17.65;;;9.20;;
50683;SDS011;36654;45.042;38.994;2022-08-20T03:23:22;15.15;;;9.45;;
50683;SDS011;36654;45.042;38.994;2022-08-20T03:25:48;14.75;;;9.70;;
50683;SDS011;36654;45.042;38.994;2022-08-20T03:28:14;13.75;;;9.52;;
50683;SDS011;36654;45.042;38.994;2022-08-20T03:30:41;17.10;;;9.77;;
50683;SDS011;36654;45.042;38.994;2022-08-20T03:33:07;18.75;;;10.10;;
50683;SDS011;36654;45.042;38.994;2022-08-20T03:35:33;15.77;;;9.45;;
50683;SDS011;36654;45.042;38.994;2022-08-20T03:37:59;16.63;;;9.38;;
50683;SDS011;36654;45.042;38.994;2022-08-20T03:40:27;17.88;;;10.13;;
50683;SDS011;36654;45.042;38.994;2022-08-20T03:42:55;18.38;;;10.10;;
50683;SDS011;36654;45.042;38.994;2022-08-20T03:45:22;19.60;;;9.70;;
50683;SDS011;36654;45.042;38.994;2022-08-20T03:47:49;17.50;;;9.32;;
50683;SDS011;36654;45.042;38.994;2022-08-20T03:50:17;18.52;;;9.35;;
50683;SDS011;36654;45.042;38.994;2022-08-20T03:52:44;19.35;;;9.70;;
50683;SDS011;36654;45.042;38.994;2022-08-20T03:55:10;16.38;;;9.80;;
50683;SDS011;36654;45.042;38.994;2022-08-20T03:57:43;14.07;;;8.00;;
50683;SDS011;36654;45.042;38.994;2022-08-20T04:00:11;17.13;;;8.63;;
50683;SDS011;36654;45.042;38.994;2022-08-20T04:02:38;19.00;;;8.55;;
50683;SDS011;36654;45.042;38.994;2022-08-20T04:05:04;15.85;;;8.63;;
50683;SDS011;36654;45.042;38.994;2022-08-20T04:07:31;17.40;;;7.97;;
50683;SDS011;36654;45.042;38.994;2022-08-20T04:09:57;14.50;;;8.23;;
50683;SDS011;36654;45.042;38.994;2022-08-20T04:12:23;18.00;;;8.73;;
50683;SDS011;36654;45.042;38.994;2022-08-20T04:14:49;17.15;;;9.40;;
50683;SDS011;36654;45.042;38.994;2022-08-20T04:17:17;17.95;;;8.85;;
50683;SDS011;36654;45.042;38.994;2022-08-20T04:19:44;16.02;;;7.85;;
50683;SDS011;36654;45.042;38.994;2022-08-20T04:22:12;19.70;;;9.20;;
50683;SDS011;36654;45.042;38.994;2022-08-20T04:24:39;13.57;;;8.82;;
50683;SDS011;36654;45.042;38.994;2022-08-20T04:27:07;16.35;;;8.98;;
50683;SDS011;36654;45.042;38.994;2022-08-20T04:29:34;18.98;;;8.38;;
50683;SDS011;36654;45.042;38.994;2022-08-20T04:32:01;19.30;;;8.38;;
50683;SDS011;36654;45.042;38.994;2022-08-20T04:34:28;16.25;;;8.88;;
50683;SDS011;36654;45.042;38.994;2022-08-20T04:36:54;20.25;;;8.43;;
50683;SDS011;36654;45.042;38.994;2022-08-20T04:39:20;15.60;;;8.55;;
50683;SDS011;36654;45.042;38.994;2022-08-20T04:41:46;16.27;;;8.65;;
50683;SDS011;36654;45.042;38.994;2022-08-20T04:44:12;14.80;;;8.48;;
50683;SDS011;36654;45.042;38.994;2022-08-20T04:46:38;18.20;;;8.52;;
50683;SDS011;36654;45.042;38.994;2022-08-20T04:49:04;18.17;;;8.50;;
50683;SDS011;36654;45.042;38.994;2022-08-20T04:51:31;18.48;;;8.52;;
50683;SDS011;36654;45.042;38.994;2022-08-20T04:53:58;16.52;;;8.10;;
50683;SDS011;36654;45.042;38.994;2022-08-20T04:56:26;14.80;;;8.23;;
50683;SDS011;36654;45.042;38.994;2022-08-20T04:58:54;15.07;;;7.43;;
50683;SDS011;36654;45.042;38.994;2022-08-20T05:01:21;13.27;;;7.97;;
50683;SDS011;36654;45.042;38.994;2022-08-20T05:03:47;16.38;;;8.35;;
50683;SDS011;36654;45.042;38.994;2022-08-20T05:06:14;14.00;;;8.07;;
50683;SDS011;36654;45.042;38.994;2022-08-20T05:08:41;14.50;;;7.75;;
50683;SDS011;36654;45.042;38.994;2022-08-20T05:11:08;13.25;;;7.50;;
50683;SDS011;36654;45.042;38.994;2022-08-20T05:13:34;14.80;;;8.07;;
50683;SDS011;36654;45.042;38.994;2022-08-20T05:16:00;16.42;;;8.30;;
50683;SDS011;36654;45.042;38.994;2022-08-20T05:18:27;18.35;;;8.52;;
50683;SDS011;36654;45.042;38.994;2022-08-20T05:20:56;12.82;;;8.13;;
50683;SDS011;36654;45.042;38.994;2022-08-20T05:23:27;17.83;;;7.78;;
50683;SDS011;36654;45.042;38.994;2022-08-20T05:25:53;13.63;;;8.27;;
50683;SDS011;36654;45.042;38.994;2022-08-20T05:28:23;11.43;;;7.63;;
50683;SDS011;36654;45.042;38.994;2022-08-20T05:30:51;16.20;;;8.48;;
50683;SDS011;36654;45.042;38.994;2022-08-20T05:33:19;13.65;;;8.48;;
50683;SDS011;36654;45.042;38.994;2022-08-20T05:35:47;13.15;;;8.32;;
50683;SDS011;36654;45.042;38.994;2022-08-20T05:38:15;16.67;;;8.43;;
50683;SDS011;36654;45.042;38.994;2022-08-20T05:40:43;13.27;;;8.70;;
50683;SDS011;36654;45.042;38.994;2022-08-20T05:43:09;14.05;;;8.90;;
50683;SDS011;36654;45.042;38.994;2022-08-20T05:45:36;18.23;;;8.52;;
50683;SDS011;36654;45.042;38.994;2022-08-20T05:48:17;16.65;;;8.52;;
50683;SDS011;36654;45.042;38.994;2022-08-20T05:50:48;14.23;;;8.65;;
50683;SDS011;36654;45.042;38.994;2022-08-20T05:53:16;19.30;;;8.77;;
50683;SDS011;36654;45.042;38.994;2022-08-20T05:55:43;20.25;;;14.93;;
50683;SDS011;36654;45.042;38.994;2022-08-20T05:58:14;16.73;;;9.40;;
50683;SDS011;36654;45.042;38.994;2022-08-20T06:00:43;15.88;;;8.82;;
50683;SDS011;36654;45.042;38.994;2022-08-20T06:03:09;15.48;;;9.15;;
50683;SDS011;36654;45.042;38.994;2022-08-20T06:05:54;15.07;;;8.40;;
50683;SDS011;36654;45.042;38.994;2022-08-20T06:08:19;19.45;;;9.18;;
50683;SDS011;36654;45.042;38.994;2022-08-20T06:10:45;19.45;;;9.15;;
50683;SDS011;36654;45.042;38.994;2022-08-20T06:13:11;22.70;;;9.98;;
50683;SDS011;36654;45.042;38.994;2022-08-20T06:15:37;25.63;;;10.40;;
50683;SDS011;36654;45.042;38.994;2022-08-20T06:18:07;27.92;;;10.68;;
50683;SDS011;36654;45.042;38.994;2022-08-20T06:20:34;17.95;;;9.45;;
50683;SDS011;36654;45.042;38.994;2022-08-20T06:23:02;21.55;;;10.00;;
50683;SDS011;36654;45.042;38.994;2022-08-20T06:25:29;22.60;;;9.88;;
50683;SDS011;36654;45.042;38.994;2022-08-20T06:27:54;23.77;;;9.82;;
50683;SDS011;36654;45.042;38.994;2022-08-20T06:30:20;18.90;;;8.85;;
50683;SDS011;36654;45.042;38.994;2022-08-20T06:32:46;17.73;;;8.60;;
50683;SDS011;36654;45.042;38.994;2022-08-20T06:35:11;22.08;;;8.98;;
50683;SDS011;36654;45.042;38.994;2022-08-20T06:37:39;16.73;;;8.77;;
50683;SDS011;36654;45.042;38.994;2022-08-20T06:40:07;16.58;;;8.60;;
50683;SDS011;36654;45.042;38.994;2022-08-20T06:42:37;13.50;;;9.00;;
50683;SDS011;36654;45.042;38.994;2022-08-20T06:45:14;12.82;;;7.63;;
50683;SDS011;36654;45.042;38.994;2022-08-20T06:47:44;12.90;;;7.40;;
50683;SDS011;36654;45.042;38.994;2022-08-20T06:50:13;14.95;;;7.57;;
50683;SDS011;36654;45.042;38.994;2022-08-20T06:52:47;13.63;;;7.35;;
50683;SDS011;36654;45.042;38.994;2022-08-20T06:55:14;12.63;;;7.15;;
50683;SDS011;36654;45.042;38.994;2022-08-20T06:57:40;14.60;;;7.85;;
50683;SDS011;36654;45.042;38.994;2022-08-20T07:00:10;15.48;;;7.90;;
50683;SDS011;36654;45.042;38.994;2022-08-20T07:02:39;15.90;;;7.72;;
50683;SDS011;36654;45.042;38.994;2022-08-20T07:05:05;12.95;;;7.30;;
50683;SDS011;36654;45.042;38.994;2022-08-20T07:07:32;15.55;;;8.20;;
50683;SDS011;36654;45.042;38.994;2022-08-20T07:10:06;13.20;;;7.85;;
50683;SDS011;36654;45.042;38.994;2022-08-20T07:12:33;13.43;;;8.13;;
50683;SDS011;36654;45.042;38.994;2022-08-20T07:15:03;15.43;;;8.30;;
50683;SDS011;36654;45.042;38.994;2022-08-20T07:17:31;17.35;;;8.40;;
50683;SDS011;36654;45.042;38.994;2022-08-20T07:19:57;15.65;;;8.52;;
50683;SDS011;36654;45.042;38.994;2022-08-20T07:22:23;12.48;;;7.50;;
50683;SDS011;36654;45.042;38.994;2022-08-20T07:24:49;13.85;;;8.05;;
50683;SDS011;36654;45.042;38.994;2022-08-20T07:27:19;17.17;;;8.10;;
50683;SDS011;36654;45.042;38.994;2022-08-20T07:29:46;12.65;;;7.60;;
50683;SDS011;36654;45.042;38.994;2022-08-20T07:32:30;10.45;;;7.03;;
50683;SDS011;36654;45.042;38.994;2022-08-20T07:34:58;14.57;;;6.97;;
50683;SDS011;36654;45.042;38.994;2022-08-20T07:37:25;15.73;;;7.88;;
50683;SDS011;36654;45.042;38.994;2022-08-20T07:39:50;13.32;;;7.85;;
50683;SDS011;36654;45.042;38.994;2022-08-20T07:42:17;13.55;;;8.25;;
50683;SDS011;36654;45.042;38.994;2022-08-20T07:44:43;13.88;;;8.77;;
50683;SDS011;36654;45.042;38.994;2022-08-20T07:47:08;15.73;;;9.40;;
50683;SDS011;36654;45.042;38.994;2022-08-20T07:49:37;13.23;;;7.93;;
50683;SDS011;36654;45.042;38.994;2022-08-20T07:52:05;14.88;;;8.43;;
50683;SDS011;36654;45.042;38.994;2022-08-20T07:54:31;22.27;;;13.45;;
50683;SDS011;36654;45.042;38.994;2022-08-20T07:57:02;12.90;;;7.65;;
50683;SDS011;36654;45.042;38.994;2022-08-20T07:59:29;13.77;;;8.95;;
50683;SDS011;36654;45.042;38.994;2022-08-20T08:01:55;11.23;;;6.20;;
50683;SDS011;36654;45.042;38.994;2022-08-20T08:04:21;13.75;;;6.93;;
50683;SDS011;36654;45.042;38.994;2022-08-20T08:06:48;14.05;;;7.07;;
50683;SDS011;36654;45.042;38.994;2022-08-20T08:09:15;15.27;;;6.53;;
50683;SDS011;36654;45.042;38.994;2022-08-20T08:11:42;14.35;;;7.35;;
50683;SDS011;36654;45.042;38.994;2022-08-20T08:14:15;11.02;;;5.90;;
50683;SDS011;36654;45.042;38.994;2022-08-20T08:16:47;13.73;;;7.10;;
50683;SDS011;36654;45.042;38.994;2022-08-20T08:19:14;11.05;;;6.70;;
50683;SDS011;36654;45.042;38.994;2022-08-20T08:21:41;11.60;;;6.35;;
50683;SDS011;36654;45.042;38.994;2022-08-20T08:24:08;13.93;;;7.20;;
50683;SDS011;36654;45.042;38.994;2022-08-20T08:26:35;12.77;;;6.93;;
50683;SDS011;36654;45.042;38.994;2022-08-20T08:29:02;10.98;;;6.95;;
50683;SDS011;36654;45.042;38.994;2022-08-20T08:31:31;12.73;;;7.00;;
50683;SDS011;36654;45.042;38.994;2022-08-20T08:33:57;12.38;;;7.40;;
50683;SDS011;36654;45.042;38.994;2022-08-20T08:36:23;14.48;;;7.60;;
50683;SDS011;36654;45.042;38.994;2022-08-20T08:38:51;14.00;;;7.65;;
50683;SDS011;36654;45.042;38.994;2022-08-20T08:41:32;12.32;;;7.80;;
50683;SDS011;36654;45.042;38.994;2022-08-20T08:49:04;14.73;;;8.23;;
50683;SDS011;36654;45.042;38.994;2022-08-20T08:51:52;14.82;;;8.80;;
50683;SDS011;36654;45.042;38.994;2022-08-20T08:54:23;15.55;;;7.70;;
50683;SDS011;36654;45.042;38.994;2022-08-20T08:56:51;13.60;;;8.20;;
50683;SDS011;36654;45.042;38.994;2022-08-20T08:59:18;11.57;;;8.10;;
50683;SDS011;36654;45.042;38.994;2022-08-20T09:01:46;15.38;;;7.65;;
50683;SDS011;36654;45.042;38.994;2022-08-20T09:04:17;14.13;;;7.75;;
50683;SDS011;36654;45.042;38.994;2022-08-20T09:06:46;12.10;;;8.07;;
50683;SDS011;36654;45.042;38.994;2022-08-20T09:09:24;17.55;;;8.23;;
50683;SDS011;36654;45.042;38.994;2022-08-20T09:11:53;15.63;;;8.38;;
50683;SDS011;36654;45.042;38.994;2022-08-20T09:14:21;15.30;;;8.80;;
50683;SDS011;36654;45.042;38.994;2022-08-20T09:16:49;13.00;;;8.00;;
50683;SDS011;36654;45.042;38.994;2022-08-20T09:19:15;17.83;;;8.57;;
50683;SDS011;36654;45.042;38.994;2022-08-20T09:21:41;13.95;;;8.52;;
50683;SDS011;36654;45.042;38.994;2022-08-20T09:24:06;14.57;;;8.80;;
50683;SDS011;36654;45.042;38.994;2022-08-20T09:26:32;14.20;;;9.35;;
50683;SDS011;36654;45.042;38.994;2022-08-20T09:28:58;13.93;;;8.52;;
50683;SDS011;36654;45.042;38.994;2022-08-20T09:31:24;14.27;;;8.80;;
50683;SDS011;36654;45.042;38.994;2022-08-20T09:33:50;14.25;;;8.85;;
50683;SDS011;36654;45.042;38.994;2022-08-20T09:36:16;12.85;;;8.57;;
50683;SDS011;36654;45.042;38.994;2022-08-20T09:38:42;13.77;;;8.80;;
50683;SDS011;36654;45.042;38.994;2022-08-20T09:41:08;12.68;;;7.70;;
50683;SDS011;36654;45.042;38.994;2022-08-20T09:43:34;14.65;;;7.68;;
50683;SDS011;36654;45.042;38.994;2022-08-20T09:46:00;12.73;;;7.20;;
50683;SDS011;36654;45.042;38.994;2022-08-20T09:48:25;9.98;;;6.05;;
50683;SDS011;36654;45.042;38.994;2022-08-20T09:50:51;11.65;;;5.90;;
50683;SDS011;36654;45.042;38.994;2022-08-20T09:53:17;11.18;;;7.20;;
50683;SDS011;36654;45.042;38.994;2022-08-20T09:55:45;14.20;;;6.88;;
50683;SDS011;36654;45.042;38.994;2022-08-20T10:00:56;11.95;;;6.82;;
50683;SDS011;36654;45.042;38.994;2022-08-20T10:03:23;14.48;;;7.30;;
50683;SDS011;36654;45.042;38.994;2022-08-20T10:05:49;13.93;;;7.13;;
50683;SDS011;36654;45.042;38.994;2022-08-20T10:08:14;12.07;;;7.15;;
50683;SDS011;36654;45.042;38.994;2022-08-20T10:10:42;13.63;;;7.43;;
50683;SDS011;36654;45.042;38.994;2022-08-20T10:13:07;14.82;;;8.27;;
50683;SDS011;36654;45.042;38.994;2022-08-20T10:15:33;14.48;;;7.57;;
50683;SDS011;36654;45.042;38.994;2022-08-20T10:18:01;13.15;;;6.88;;
50683;SDS011;36654;45.042;38.994;2022-08-20T10:20:29;11.88;;;7.57;;
50683;SDS011;36654;45.042;38.994;2022-08-20T10:22:55;11.45;;;7.45;;
50683;SDS011;36654;45.042;38.994;2022-08-20T10:25:21;14.00;;;6.80;;
50683;SDS011;36654;45.042;38.994;2022-08-20T10:27:47;13.75;;;8.27;;
50683;SDS011;36654;45.042;38.994;2022-08-20T10:30:13;17.83;;;8.10;;
50683;SDS011;36654;45.042;38.994;2022-08-20T10:32:39;15.52;;;8.52;;
50683;SDS011;36654;45.042;38.994;2022-08-20T10:35:05;15.27;;;8.07;;
50683;SDS011;36654;45.042;38.994;2022-08-20T10:37:31;12.40;;;7.93;;
50683;SDS011;36654;45.042;38.994;2022-08-20T10:39:58;17.80;;;9.25;;
50683;SDS011;36654;45.042;38.994;2022-08-20T10:42:24;14.57;;;7.20;;
50683;SDS011;36654;45.042;38.994;2022-08-20T10:44:50;14.27;;;7.90;;
50683;SDS011;36654;45.042;38.994;2022-08-20T10:47:20;15.57;;;8.40;;
50683;SDS011;36654;45.042;38.994;2022-08-20T10:49:48;14.77;;;7.95;;
50683;SDS011;36654;45.042;38.994;2022-08-20T10:52:15;16.95;;;8.40;;
50683;SDS011;36654;45.042;38.994;2022-08-20T10:54:41;15.52;;;8.48;;
50683;SDS011;36654;45.042;38.994;2022-08-20T10:57:18;15.32;;;8.50;;
50683;SDS011;36654;45.042;38.994;2022-08-20T10:59:46;13.50;;;7.68;;
50683;SDS011;36654;45.042;38.994;2022-08-20T11:02:14;17.02;;;7.55;;
50683;SDS011;36654;45.042;38.994;2022-08-20T11:04:41;12.43;;;7.43;;
50683;SDS011;36654;45.042;38.994;2022-08-20T11:09:39;15.98;;;8.63;;
50683;SDS011;36654;45.042;38.994;2022-08-20T11:12:05;11.75;;;6.72;;
50683;SDS011;36654;45.042;38.994;2022-08-20T11:14:31;11.93;;;7.72;;
50683;SDS011;36654;45.042;38.994;2022-08-20T11:16:58;12.27;;;7.50;;
50683;SDS011;36654;45.042;38.994;2022-08-20T11:19:24;11.38;;;6.20;;
50683;SDS011;36654;45.042;38.994;2022-08-20T11:21:50;11.90;;;6.18;;
50683;SDS011;36654;45.042;38.994;2022-08-20T11:24:15;12.10;;;6.10;;
50683;SDS011;36654;45.042;38.994;2022-08-20T11:26:42;8.90;;;5.80;;
50683;SDS011;36654;45.042;38.994;2022-08-20T11:29:11;13.07;;;7.15;;
50683;SDS011;36654;45.042;38.994;2022-08-20T11:31:38;12.23;;;6.50;;
50683;SDS011;36654;45.042;38.994;2022-08-20T11:34:04;13.77;;;7.57;;
50683;SDS011;36654;45.042;38.994;2022-08-20T11:36:30;13.43;;;6.75;;
50683;SDS011;36654;45.042;38.994;2022-08-20T11:38:56;15.13;;;7.43;;
50683;SDS011;36654;45.042;38.994;2022-08-20T11:41:21;15.02;;;6.70;;
50683;SDS011;36654;45.042;38.994;2022-08-20T11:43:47;12.50;;;6.90;;
50683;SDS011;36654;45.042;38.994;2022-08-20T11:46:13;12.00;;;6.45;;
50683;SDS011;36654;45.042;38.994;2022-08-20T11:48:39;13.20;;;6.38;;
50683;SDS011;36654;45.042;38.994;2022-08-20T11:51:04;12.20;;;5.88;;
50683;SDS011;36654;45.042;38.994;2022-08-20T11:53:30;12.40;;;5.60;;
50683;SDS011;36654;45.042;38.994;2022-08-20T11:55:56;14.57;;;5.72;;
50683;SDS011;36654;45.042;38.994;2022-08-20T11:58:22;10.68;;;5.78;;
50683;SDS011;36654;45.042;38.994;2022-08-20T12:00:48;11.93;;;5.47;;
50683;SDS011;36654;45.042;38.994;2022-08-20T12:03:13;11.23;;;5.57;;
50683;SDS011;36654;45.042;38.994;2022-08-20T12:05:41;10.20;;;5.30;;
50683;SDS011;36654;45.042;38.994;2022-08-20T12:08:08;12.35;;;5.40;;
50683;SDS011;36654;45.042;38.994;2022-08-20T12:10:35;12.68;;;5.43;;
50683;SDS011;36654;45.042;38.994;2022-08-20T12:13:01;11.55;;;5.28;;
50683;SDS011;36654;45.042;38.994;2022-08-20T12:15:27;9.80;;;4.43;;
50683;SDS011;36654;45.042;38.994;2022-08-20T12:17:53;9.00;;;4.55;;
50683;SDS011;36654;45.042;38.994;2022-08-20T12:20:19;10.57;;;4.95;;
50683;SDS011;36654;45.042;38.994;2022-08-20T12:22:45;9.10;;;4.85;;
50683;SDS011;36654;45.042;38.994;2022-08-20T12:25:10;11.43;;;5.20;;
50683;SDS011;36654;45.042;38.994;2022-08-20T12:27:37;10.23;;;4.60;;
50683;SDS011;36654;45.042;38.994;2022-08-20T12:30:05;9.15;;;4.47;;
50683;SDS011;36654;45.042;38.994;2022-08-20T12:32:33;10.77;;;4.47;;
50683;SDS011;36654;45.042;38.994;2022-08-20T12:34:59;11.07;;;4.80;;
50683;SDS011;36654;45.042;38.994;2022-08-20T12:37:26;12.23;;;4.53;;
50683;SDS011;36654;45.042;38.994;2022-08-20T12:39:54;11.95;;;5.50;;
50683;SDS011;36654;45.042;38.994;2022-08-20T12:42:22;13.20;;;5.07;;
50683;SDS011;36654;45.042;38.994;2022-08-20T12:44:48;11.45;;;4.68;;
50683;SDS011;36654;45.042;38.994;2022-08-20T12:47:24;11.55;;;4.32;;
50683;SDS011;36654;45.042;38.994;2022-08-20T12:49:52;10.93;;;4.35;;
50683;SDS011;36654;45.042;38.994;2022-08-20T12:52:20;12.57;;;4.47;;
50683;SDS011;36654;45.042;38.994;2022-08-20T12:54:47;10.75;;;4.38;;
50683;SDS011;36654;45.042;38.994;2022-08-20T12:57:28;8.55;;;3.72;;
50683;SDS011;36654;45.042;38.994;2022-08-20T13:00:05;11.27;;;4.22;;
50683;SDS011;36654;45.042;38.994;2022-08-20T13:02:36;8.65;;;4.30;;
50683;SDS011;36654;45.042;38.994;2022-08-20T13:05:05;10.40;;;4.50;;
50683;SDS011;36654;45.042;38.994;2022-08-20T13:07:31;13.32;;;3.97;;
50683;SDS011;36654;45.042;38.994;2022-08-20T13:09:58;10.15;;;4.30;;
50683;SDS011;36654;45.042;38.994;2022-08-20T13:12:25;9.93;;;4.45;;
50683;SDS011;36654;45.042;38.994;2022-08-20T13:14:51;10.85;;;4.65;;
50683;SDS011;36654;45.042;38.994;2022-08-20T13:17:17;10.90;;;4.28;;
50683;SDS011;36654;45.042;38.994;2022-08-20T13:19:43;10.30;;;4.00;;
50683;SDS011;36654;45.042;38.994;2022-08-20T13:22:09;12.43;;;4.63;;
50683;SDS011;36654;45.042;38.994;2022-08-20T13:24:36;12.00;;;4.78;;
50683;SDS011;36654;45.042;38.994;2022-08-20T13:27:16;12.68;;;4.63;;
50683;SDS011;36654;45.042;38.994;2022-08-20T13:29:47;10.68;;;4.10;;
50683;SDS011;36654;45.042;38.994;2022-08-20T13:32:14;11.57;;;4.45;;
50683;SDS011;36654;45.042;38.994;2022-08-20T13:34:41;11.25;;;4.40;;
50683;SDS011;36654;45.042;38.994;2022-08-20T13:37:13;12.60;;;4.75;;
50683;SDS011;36654;45.042;38.994;2022-08-20T13:39:41;10.25;;;4.07;;
50683;SDS011;36654;45.042;38.994;2022-08-20T13:42:07;13.30;;;4.47;;
50683;SDS011;36654;45.042;38.994;2022-08-20T13:44:34;11.55;;;4.88;;
50683;SDS011;36654;45.042;38.994;2022-08-20T13:46:59;14.32;;;4.70;;
50683;SDS011;36654;45.042;38.994;2022-08-20T13:49:38;14.15;;;4.68;;
50683;SDS011;36654;45.042;38.994;2022-08-20T13:52:04;9.98;;;4.38;;
50683;SDS011;36654;45.042;38.994;2022-08-20T13:54:29;11.27;;;6.65;;
50683;SDS011;36654;45.042;38.994;2022-08-20T13:57:17;9.35;;;4.40;;
50683;SDS011;36654;45.042;38.994;2022-08-20T13:59:43;12.85;;;4.70;;
50683;SDS011;36654;45.042;38.994;2022-08-20T14:02:10;12.45;;;5.25;;
50683;SDS011;36654;45.042;38.994;2022-08-20T14:04:37;10.65;;;4.75;;
50683;SDS011;36654;45.042;38.994;2022-08-20T14:07:25;12.23;;;4.78;;
50683;SDS011;36654;45.042;38.994;2022-08-20T14:09:52;11.32;;;5.15;;
50683;SDS011;36654;45.042;38.994;2022-08-20T14:12:21;10.82;;;4.88;;
50683;SDS011;36654;45.042;38.994;2022-08-20T14:14:48;13.07;;;5.47;;
50683;SDS011;36654;45.042;38.994;2022-08-20T14:19:45;14.10;;;6.70;;
50683;SDS011;36654;45.042;38.994;2022-08-20T14:22:12;11.63;;;5.47;;
50683;SDS011;36654;45.042;38.994;2022-08-20T14:24:38;15.18;;;5.53;;
50683;SDS011;36654;45.042;38.994;2022-08-20T14:27:05;13.05;;;4.95;;
50683;SDS011;36654;45.042;38.994;2022-08-20T14:29:36;10.90;;;5.55;;
50683;SDS011;36654;45.042;38.994;2022-08-20T14:32:04;11.45;;;5.10;;
50683;SDS011;36654;45.042;38.994;2022-08-20T14:34:30;9.95;;;4.90;;
50683;SDS011;36654;45.042;38.994;2022-08-20T14:37:07;11.75;;;5.05;;
50683;SDS011;36654;45.042;38.994;2022-08-20T14:39:41;11.87;;;5.20;;
50683;SDS011;36654;45.042;38.994;2022-08-20T14:42:09;12.02;;;5.20;;
50683;SDS011;36654;45.042;38.994;2022-08-20T14:44:34;12.50;;;4.93;;
50683;SDS011;36654;45.042;38.994;2022-08-20T14:47:13;14.23;;;4.93;;
50683;SDS011;36654;45.042;38.994;2022-08-20T14:49:39;11.60;;;5.00;;